Time;durP1;ratioP1;P1;durP2;ratioP2;P2;SDS_P1;SDS_P2;PMS_P1;PMS_P2;Temp;Humidity;BMP_temperature;BMP_pressure;BME280_temperature;BME280_humidity;BME280_pressure;Samples;Min_cycle;Max_cycle;Signal;HPM_P1;HPM_P2
2023/10/24 00:01:28;;;;;;;6.93;3.50;;;14.40;84.10;;;;;;5087437;28;20051;-66
2023/10/24 00:03:54;;;;;;;8.63;3.80;;;14.40;84.00;;;;;;5088615;28;20020;-66
2023/10/24 00:06:19;;;;;;;8.80;3.80;;;14.40;84.00;;;;;;5094938;28;20040;-66
2023/10/24 00:08:45;;;;;;;10.10;4.10;;;14.40;84.00;;;;;;5085990;28;20043;-66
2023/10/24 00:11:11;;;;;;;7.53;3.28;;;14.40;84.00;;;;;;5070227;28;20114;-66
2023/10/24 00:13:37;;;;;;;7.82;3.35;;;14.40;84.10;;;;;;5087422;28;20046;-65
2023/10/24 00:16:03;;;;;;;8.07;3.88;;;14.40;84.10;;;;;;5088210;28;20027;-66
2023/10/24 00:18:29;;;;;;;8.45;3.95;;;14.40;84.10;;;;;;5085435;28;20024;-66
2023/10/24 00:20:55;;;;;;;10.77;4.40;;;14.40;84.10;;;;;;5089335;28;20020;-66
2023/10/24 00:23:21;;;;;;;7.93;4.20;;;14.40;84.10;;;;;;5089648;28;20024;-66
2023/10/24 00:25:46;;;;;;;8.32;4.22;;;14.40;84.20;;;;;;5087265;28;20047;-66
2023/10/24 00:28:12;;;;;;;9.38;4.20;;;14.40;84.20;;;;;;5087308;28;20036;-66
2023/10/24 00:30:39;;;;;;;10.32;4.28;;;14.40;84.20;;;;;;5084828;28;20111;-66
2023/10/24 00:33:05;;;;;;;9.18;4.32;;;14.40;84.20;;;;;;5088579;28;20024;-66
2023/10/24 00:35:32;;;;;;;9.43;4.95;;;14.40;84.40;;;;;;5068523;28;20031;-66
2023/10/24 00:37:57;;;;;;;8.85;4.95;;;14.40;84.30;;;;;;5088280;28;20051;-66
2023/10/24 00:40:23;;;;;;;10.15;5.30;;;14.40;84.30;;;;;;5088293;28;20062;-66
2023/10/24 00:42:51;;;;;;;7.60;5.18;;;14.40;84.30;;;;;;5089013;28;20356;-66
2023/10/24 00:45:17;;;;;;;7.55;4.70;;;14.40;84.30;;;;;;5093484;28;20047;-65
2023/10/24 00:47:44;;;;;;;9.20;5.00;;;14.40;84.30;;;;;;5086701;28;20058;-65
2023/10/24 00:50:09;;;;;;;8.38;5.47;;;14.40;84.30;;;;;;5087345;28;20388;-65
2023/10/24 00:52:37;;;;;;;10.98;5.50;;;14.40;84.30;;;;;;5085828;28;20028;-65
2023/10/24 00:55:05;;;;;;;7.60;5.05;;;14.40;84.30;;;;;;5089115;28;20115;-65
2023/10/24 00:57:31;;;;;;;7.50;5.22;;;14.40;84.30;;;;;;5068251;28;20033;-68
2023/10/24 00:59:57;;;;;;;7.68;4.93;;;14.40;84.30;;;;;;5087316;28;20125;-68
2023/10/24 01:02:23;;;;;;;8.63;5.45;;;14.40;84.30;;;;;;5095396;28;20306;-68
2023/10/24 01:04:53;;;;;;;9.07;5.40;;;14.40;84.30;;;;;;5086290;28;20021;-68
2023/10/24 01:07:19;;;;;;;8.73;6.00;;;14.40;84.40;;;;;;5086210;28;20082;-67
2023/10/24 01:09:45;;;;;;;7.82;5.60;;;14.40;84.40;;;;;;5087703;28;20020;-68
2023/10/24 01:12:11;;;;;;;10.90;6.15;;;14.40;84.40;;;;;;5090795;28;20028;-68
2023/10/24 01:14:38;;;;;;;9.65;6.60;;;14.50;84.40;;;;;;5087940;28;20326;-68
2023/10/24 01:17:11;;;;;;;11.23;6.13;;;14.40;84.40;;;;;;5089161;28;20367;-68
2023/10/24 01:19:37;;;;;;;9.25;6.18;;;14.40;84.40;;;;;;5069318;28;20024;-68
2023/10/24 01:22:03;;;;;;;10.57;6.60;;;14.40;84.50;;;;;;5088591;28;20045;-68
2023/10/24 01:24:29;;;;;;;8.25;5.93;;;14.40;84.50;;;;;;5084948;28;20423;-68
2023/10/24 01:26:56;;;;;;;10.88;6.38;;;14.40;84.60;;;;;;5085619;28;20498;-68
2023/10/24 01:29:22;;;;;;;10.60;6.72;;;14.40;84.50;;;;;;5085932;28;20148;-68
2023/10/24 01:31:48;;;;;;;8.45;5.97;;;14.40;84.50;;;;;;5090123;28;20398;-68
2023/10/24 01:34:14;;;;;;;9.30;6.50;;;14.40;84.60;;;;;;5086728;28;20186;-68
2023/10/24 01:36:40;;;;;;;9.77;6.15;;;14.40;84.60;;;;;;5090892;28;20073;-68
2023/10/24 01:39:07;;;;;;;10.35;6.70;;;14.40;84.60;;;;;;5073268;28;20056;-68
2023/10/24 01:41:34;;;;;;;10.00;6.28;;;14.40;84.70;;;;;;5090297;28;20462;-68
2023/10/24 01:44:00;;;;;;;9.43;5.68;;;14.40;84.70;;;;;;5084533;28;20123;-68
2023/10/24 01:46:25;;;;;;;8.90;5.57;;;14.40;84.70;;;;;;5087975;28;20064;-68
2023/10/24 01:48:51;;;;;;;8.75;5.07;;;14.40;84.80;;;;;;5087208;28;20035;-68
2023/10/24 01:51:19;;;;;;;8.32;5.38;;;14.40;84.80;;;;;;5096024;28;20093;-68
2023/10/24 01:53:45;;;;;;;10.32;5.85;;;14.50;84.80;;;;;;5090023;28;20433;-67
2023/10/24 01:56:12;;;;;;;10.05;4.95;;;14.40;84.80;;;;;;5088361;28;20093;-68
2023/10/24 01:58:38;;;;;;;10.50;6.30;;;14.40;84.80;;;;;;5086930;28;20106;-68
2023/10/24 02:01:05;;;;;;;8.98;4.95;;;14.40;84.70;;;;;;5073582;28;20055;-68
2023/10/24 02:03:30;;;;;;;10.85;5.32;;;14.40;84.70;;;;;;5089797;28;20044;-68
2023/10/24 02:05:56;;;;;;;9.52;5.57;;;14.40;84.70;;;;;;5091942;28;20317;-68
2023/10/24 02:08:23;;;;;;;11.23;5.43;;;14.40;84.70;;;;;;5090969;28;20028;-68
2023/10/24 02:10:50;;;;;;;8.95;4.65;;;14.40;84.70;;;;;;5091580;28;20050;-68
2023/10/24 02:13:16;;;;;;;8.63;5.07;;;14.40;84.60;;;;;;5098122;28;20085;-68
2023/10/24 02:15:42;;;;;;;7.78;4.93;;;14.40;84.60;;;;;;5090805;28;20382;-68
2023/10/24 02:18:08;;;;;;;8.05;4.22;;;14.40;84.50;;;;;;5087752;28;20024;-68
2023/10/24 02:20:34;;;;;;;9.05;4.60;;;14.40;84.50;;;;;;5099272;28;20326;-68
2023/10/24 02:23:00;;;;;;;7.65;4.53;;;14.40;84.50;;;;;;5088532;28;20054;-68
2023/10/24 02:25:26;;;;;;;9.32;4.53;;;14.40;84.50;;;;;;5090449;28;20127;-65
2023/10/24 02:27:54;;;;;;;10.25;4.85;;;14.40;84.50;;;;;;5073247;28;20042;-65
2023/10/24 02:30:21;;;;;;;9.32;4.50;;;14.40;84.40;;;;;;5066874;28;20032;-65
2023/10/24 02:32:49;;;;;;;8.02;3.92;;;14.40;84.40;;;;;;5089241;28;20028;-68
2023/10/24 02:35:15;;;;;;;7.82;4.13;;;14.40;84.30;;;;;;5088361;28;20032;-68
2023/10/24 02:37:41;;;;;;;8.10;3.90;;;14.40;84.20;;;;;;5088420;28;20111;-68
2023/10/24 02:40:10;;;;;;;6.72;3.33;;;14.40;84.20;;;;;;5088248;28;20425;-68
2023/10/24 02:42:35;;;;;;;8.00;3.80;;;14.40;84.10;;;;;;5080165;28;20602;-68
2023/10/24 02:45:02;;;;;;;7.43;3.80;;;14.40;84.10;;;;;;5087329;28;20032;-68
2023/10/24 02:47:29;;;;;;;8.38;3.75;;;14.30;83.90;;;;;;5090712;28;20025;-68
2023/10/24 02:49:55;;;;;;;7.82;3.28;;;14.40;83.70;;;;;;5088735;28;20031;-68
2023/10/24 02:52:21;;;;;;;6.43;3.17;;;14.30;83.60;;;;;;5071314;28;20024;-68
2023/10/24 02:54:46;;;;;;;6.25;3.22;;;14.40;83.60;;;;;;5079265;28;20024;-68
2023/10/24 02:57:12;;;;;;;6.07;2.90;;;14.30;83.50;;;;;;5080739;28;20043;-68
2023/10/24 02:59:38;;;;;;;7.10;3.30;;;14.40;83.50;;;;;;5064477;28;20064;-67
2023/10/24 03:02:04;;;;;;;7.15;3.03;;;14.40;83.60;;;;;;5087908;28;20051;-68
2023/10/24 03:04:30;;;;;;;7.07;3.53;;;14.30;83.40;;;;;;5079351;28;20385;-67
2023/10/24 03:06:55;;;;;;;7.13;3.33;;;14.30;83.30;;;;;;5071512;28;20034;-68
2023/10/24 03:09:22;;;;;;;6.22;2.80;;;14.30;83.30;;;;;;5088160;28;20326;-68
2023/10/24 03:11:48;;;;;;;7.85;4.03;;;14.30;83.20;;;;;;5088679;28;20047;-68
2023/10/24 03:14:13;;;;;;;7.25;3.40;;;14.30;83.20;;;;;;5087981;28;20027;-68
2023/10/24 03:16:40;;;;;;;7.45;4.00;;;14.30;83.20;;;;;;5072268;28;20028;-68
2023/10/24 03:19:06;;;;;;;6.97;3.70;;;14.30;83.20;;;;;;5089582;28;20448;-68
2023/10/24 03:21:31;;;;;;;7.50;3.83;;;14.30;83.20;;;;;;5083360;28;20118;-65
2023/10/24 03:23:57;;;;;;;8.98;4.05;;;14.30;83.20;;;;;;5089175;28;20048;-65
2023/10/24 03:26:23;;;;;;;8.60;4.65;;;14.30;83.10;;;;;;5075416;28;20444;-65
2023/10/24 03:28:49;;;;;;;8.77;4.22;;;14.30;83.00;;;;;;5079906;28;20082;-65
2023/10/24 03:31:15;;;;;;;6.95;3.97;;;14.30;83.00;;;;;;5085912;28;20040;-68
2023/10/24 03:33:41;;;;;;;7.30;4.30;;;14.30;83.10;;;;;;5089500;28;20113;-67
2023/10/24 03:36:14;;;;;;;9.65;4.65;;;14.20;83.00;;;;;;5089035;28;20071;-68
2023/10/24 03:38:40;;;;;;;7.68;4.57;;;14.30;83.10;;;;;;5069387;28;20029;-68
2023/10/24 03:41:07;;;;;;;8.40;5.05;;;14.20;83.70;;;;;;5077460;28;20345;-68
2023/10/24 03:43:35;;;;;;;7.65;4.38;;;14.20;83.00;;;;;;5077529;28;20020;-68
2023/10/24 03:46:05;;;;;;;8.40;4.28;;;14.20;82.90;;;;;;5064988;28;20020;-68
2023/10/24 03:48:31;;;;;;;7.63;4.32;;;14.20;82.90;;;;;;5072282;28;20044;-67
2023/10/24 03:51:00;;;;;;;8.02;4.13;;;14.20;82.80;;;;;;5087001;28;20028;-67
2023/10/24 03:53:26;;;;;;;8.57;4.22;;;14.20;82.70;;;;;;5085500;28;20044;-68
2023/10/24 03:55:59;;;;;;;8.13;4.35;;;14.20;82.80;;;;;;5071725;28;20431;-68
2023/10/24 03:58:25;;;;;;;7.75;4.00;;;14.20;82.80;;;;;;5088048;28;20040;-68
2023/10/24 04:00:51;;;;;;;7.38;3.90;;;14.20;82.80;;;;;;5069291;28;20035;-68
2023/10/24 04:03:17;;;;;;;7.30;3.95;;;14.20;82.70;;;;;;5088010;28;20036;-68
2023/10/24 04:05:43;;;;;;;7.72;3.83;;;14.30;82.70;;;;;;5087813;28;20325;-68
2023/10/24 04:08:09;;;;;;;7.90;3.85;;;14.30;82.60;;;;;;5087704;28;20020;-68
2023/10/24 04:10:34;;;;;;;8.02;3.72;;;14.20;82.50;;;;;;5081864;28;20029;-68
2023/10/24 04:13:01;;;;;;;6.50;3.60;;;14.20;82.50;;;;;;5088513;28;20032;-68
2023/10/24 04:15:27;;;;;;;9.10;3.75;;;14.20;82.50;;;;;;5087516;28;20055;-68
2023/10/24 04:17:54;;;;;;;7.85;3.75;;;14.20;82.50;;;;;;5070770;28;20521;-68
2023/10/24 04:20:20;;;;;;;8.07;3.90;;;14.20;82.40;;;;;;5086984;28;20020;-68
2023/10/24 04:22:49;;;;;;;7.25;3.40;;;14.20;82.40;;;;;;5086918;28;20363;-68
2023/10/24 04:25:15;;;;;;;6.97;3.50;;;14.20;83.10;;;;;;5062754;28;20422;-67
2023/10/24 04:27:41;;;;;;;7.47;3.42;;;14.20;82.40;;;;;;5087939;28;20024;-67
2023/10/24 04:30:09;;;;;;;7.38;3.72;;;14.20;82.40;;;;;;5087338;28;20372;-68
2023/10/24 04:32:34;;;;;;;7.03;3.67;;;14.20;82.40;;;;;;5067164;28;20129;-67
2023/10/24 04:35:00;;;;;;;5.80;3.20;;;14.20;82.30;;;;;;5087082;28;20048;-68
2023/10/24 04:37:26;;;;;;;6.40;3.55;;;14.20;82.20;;;;;;5087959;28;20169;-68
2023/10/24 04:39:54;;;;;;;8.77;4.30;;;14.20;82.20;;;;;;5086880;28;20039;-68
2023/10/24 04:42:21;;;;;;;6.55;3.17;;;14.20;82.10;;;;;;5086856;28;20028;-67
2023/10/24 04:44:47;;;;;;;7.28;3.42;;;14.20;82.10;;;;;;5086304;28;20028;-67
2023/10/24 04:47:13;;;;;;;6.75;3.53;;;14.10;82.00;;;;;;5070756;28;20027;-67
2023/10/24 04:49:38;;;;;;;7.95;3.83;;;14.10;82.00;;;;;;5087999;28;20137;-68
2023/10/24 04:52:04;;;;;;;6.88;3.65;;;14.10;82.00;;;;;;5081983;28;20085;-68
2023/10/24 04:54:30;;;;;;;7.47;3.63;;;14.10;82.00;;;;;;5087749;28;20089;-67
2023/10/24 04:56:57;;;;;;;7.53;3.90;;;14.10;82.00;;;;;;5086571;28;20039;-67
2023/10/24 04:59:22;;;;;;;6.30;3.40;;;14.10;81.90;;;;;;5063656;28;20044;-68
2023/10/24 05:01:48;;;;;;;6.43;3.20;;;14.10;81.90;;;;;;5087315;28;20016;-67
2023/10/24 05:04:14;;;;;;;7.50;3.92;;;14.10;81.80;;;;;;5085424;28;20039;-68
2023/10/24 05:06:39;;;;;;;7.68;3.97;;;14.10;81.70;;;;;;5073811;28;20508;-67
2023/10/24 05:09:06;;;;;;;8.00;3.83;;;14.10;81.60;;;;;;5086564;28;20061;-68
2023/10/24 05:11:32;;;;;;;8.05;4.45;;;14.10;81.50;;;;;;5078547;28;20098;-68
2023/10/24 05:13:57;;;;;;;8.35;4.10;;;14.10;81.50;;;;;;5087001;28;20036;-68
2023/10/24 05:16:23;;;;;;;7.22;4.20;;;14.00;81.50;;;;;;5091375;28;20059;-68
2023/10/24 05:18:49;;;;;;;6.97;4.00;;;14.10;81.50;;;;;;5086700;28;20024;-68
2023/10/24 05:21:15;;;;;;;8.05;4.45;;;14.00;81.50;;;;;;5086792;28;20067;-68
2023/10/24 05:23:40;;;;;;;8.07;4.47;;;14.00;81.50;;;;;;5092123;28;20020;-67
2023/10/24 05:26:06;;;;;;;7.30;4.05;;;14.00;81.50;;;;;;5087920;28;20032;-68
2023/10/24 05:28:34;;;;;;;7.20;3.65;;;14.00;81.60;;;;;;5071221;28;20028;-67
2023/10/24 05:31:07;;;;;;;8.68;4.55;;;14.00;81.50;;;;;;5091028;28;20036;-67
2023/10/24 05:33:38;;;;;;;7.68;4.32;;;14.00;81.60;;;;;;5092334;28;20396;-67
2023/10/24 05:36:04;;;;;;;8.70;4.65;;;14.00;81.60;;;;;;5084835;28;20028;-67
2023/10/24 05:38:32;;;;;;;7.93;4.75;;;14.00;81.50;;;;;;5086783;28;20051;-67
2023/10/24 05:40:59;;;;;;;8.50;4.88;;;14.00;81.40;;;;;;5067502;28;20334;-68
2023/10/24 05:43:25;;;;;;;8.68;4.25;;;14.00;81.40;;;;;;5088097;28;20081;-67
2023/10/24 05:45:51;;;;;;;7.75;4.57;;;14.00;81.40;;;;;;5090154;28;20032;-67
2023/10/24 05:48:17;;;;;;;9.60;5.20;;;14.00;81.30;;;;;;5089852;28;20066;-67
2023/10/24 05:50:45;;;;;;;8.70;4.50;;;14.00;81.30;;;;;;5087286;28;20024;-67
2023/10/24 05:53:11;;;;;;;8.02;4.55;;;14.00;81.20;;;;;;5090341;28;20096;-67
2023/10/24 05:55:40;;;;;;;8.52;4.68;;;14.00;81.20;;;;;;5090718;28;20410;-67
2023/10/24 05:58:06;;;;;;;8.55;4.63;;;14.00;81.10;;;;;;5088643;28;20039;-67
2023/10/24 06:00:32;;;;;;;7.85;4.47;;;13.90;80.90;;;;;;5092727;28;20103;-67
2023/10/24 06:02:57;;;;;;;8.32;4.85;;;13.90;80.90;;;;;;5093589;28;20024;-67
2023/10/24 06:05:23;;;;;;;7.63;4.10;;;14.00;80.90;;;;;;5092926;28;20028;-67
2023/10/24 06:07:49;;;;;;;10.02;4.75;;;13.90;80.80;;;;;;5091865;28;20050;-67
2023/10/24 06:10:14;;;;;;;8.45;5.07;;;14.00;80.80;;;;;;5093479;28;20028;-67
2023/10/24 06:12:40;;;;;;;9.25;5.53;;;13.90;80.80;;;;;;5092923;28;20032;-67
2023/10/24 06:15:06;;;;;;;9.50;5.55;;;14.00;80.70;;;;;;5091868;28;20020;-67
2023/10/24 06:17:33;;;;;;;9.25;5.07;;;14.00;80.70;;;;;;5095320;28;20341;-67
2023/10/24 06:19:59;;;;;;;9.45;5.63;;;14.00;80.70;;;;;;5092456;28;20292;-67
2023/10/24 06:22:28;;;;;;;8.02;4.88;;;14.00;80.70;;;;;;5093391;28;20096;-68
2023/10/24 06:24:55;;;;;;;8.82;4.80;;;14.00;80.60;;;;;;5094654;28;20438;-67
2023/10/24 06:27:20;;;;;;;8.65;4.88;;;14.00;80.60;;;;;;5086584;28;20169;-67
2023/10/24 06:29:46;;;;;;;8.20;4.95;;;14.00;80.60;;;;;;5095285;28;20127;-67
2023/10/24 06:32:12;;;;;;;8.32;4.88;;;14.00;80.50;;;;;;5092805;28;20032;-67
2023/10/24 06:34:37;;;;;;;8.00;4.55;;;14.00;80.50;;;;;;5101977;28;20027;-67
2023/10/24 06:37:03;;;;;;;8.15;5.13;;;13.90;80.40;;;;;;5109880;28;20431;-68
2023/10/24 06:39:29;;;;;;;8.05;5.07;;;13.90;80.40;;;;;;5059201;28;20446;-67
2023/10/24 06:41:55;;;;;;;8.27;5.13;;;13.90;80.40;;;;;;5106254;28;20015;-67
2023/10/24 06:44:22;;;;;;;8.40;4.35;;;13.90;80.30;;;;;;5098532;28;20032;-68
2023/10/24 06:46:49;;;;;;;8.05;5.18;;;13.90;80.30;;;;;;5075625;28;20020;-67
2023/10/24 06:49:14;;;;;;;7.75;4.22;;;13.90;80.20;;;;;;5101138;28;20027;-67
2023/10/24 06:51:40;;;;;;;7.57;3.90;;;13.90;80.10;;;;;;5078079;28;20456;-68
2023/10/24 06:54:06;;;;;;;8.48;4.35;;;13.90;80.10;;;;;;5091837;28;20031;-68
2023/10/24 06:56:34;;;;;;;7.38;4.07;;;14.00;80.10;;;;;;5086970;28;20554;-68
2023/10/24 06:59:00;;;;;;;7.97;4.03;;;14.00;80.00;;;;;;5091078;28;20116;-67
2023/10/24 07:01:25;;;;;;;7.15;3.85;;;14.00;79.90;;;;;;5064486;28;20124;-67
2023/10/24 07:03:51;;;;;;;7.57;3.95;;;14.00;79.80;;;;;;5085776;28;20029;-68
2023/10/24 07:06:17;;;;;;;7.35;3.53;;;14.00;79.90;;;;;;5087184;28;20028;-68
2023/10/24 07:08:46;;;;;;;6.97;3.83;;;14.00;79.80;;;;;;5089038;28;20403;-68
2023/10/24 07:11:12;;;;;;;8.00;4.10;;;14.00;79.60;;;;;;5091045;28;20035;-67
2023/10/24 07:13:37;;;;;;;6.90;4.05;;;14.00;79.60;;;;;;5072112;28;20047;-68
2023/10/24 07:16:16;;;;;;;9.50;3.97;;;14.00;79.60;;;;;;5086364;28;20020;-68
2023/10/24 07:18:42;;;;;;;7.38;4.03;;;14.00;79.50;;;;;;5075146;28;20032;-67
2023/10/24 07:21:08;;;;;;;7.10;3.97;;;14.00;79.40;;;;;;5089023;28;20031;-68
2023/10/24 07:23:34;;;;;;;8.20;3.72;;;14.10;79.30;;;;;;5063383;28;20406;-67
2023/10/24 07:26:00;;;;;;;7.38;3.95;;;14.10;79.30;;;;;;5087086;28;20146;-67
2023/10/24 07:28:26;;;;;;;7.28;3.95;;;14.00;79.20;;;;;;5087274;28;20832;-68
2023/10/24 07:30:54;;;;;;;8.00;4.45;;;14.10;79.30;;;;;;5092017;28;20118;-68
2023/10/24 07:33:20;;;;;;;8.07;3.72;;;14.10;79.20;;;;;;5088321;28;20036;-68
2023/10/24 07:35:48;;;;;;;7.20;3.60;;;14.10;79.20;;;;;;5091558;28;20093;-65
2023/10/24 07:38:14;;;;;;;7.72;3.90;;;14.10;79.20;;;;;;5077232;28;20127;-65
2023/10/24 07:40:40;;;;;;;8.18;4.00;;;14.10;79.20;;;;;;5089997;28;20042;-68
2023/10/24 07:43:05;;;;;;;7.10;3.20;;;14.20;79.20;;;;;;5097246;28;20399;-68
2023/10/24 07:45:33;;;;;;;7.63;3.40;;;14.20;79.10;;;;;;5072514;28;20106;-66
2023/10/24 07:47:59;;;;;;;6.65;3.55;;;14.20;79.00;;;;;;5072819;28;20032;-65
2023/10/24 07:50:28;;;;;;;6.82;3.30;;;14.20;79.00;;;;;;5087950;28;20036;-65
2023/10/24 07:52:54;;;;;;;6.78;3.35;;;14.20;78.90;;;;;;5085262;28;20029;-66
2023/10/24 07:55:19;;;;;;;6.90;3.63;;;14.20;78.80;;;;;;5079466;28;20033;-66
2023/10/24 07:57:46;;;;;;;7.38;3.85;;;14.20;78.80;;;;;;5088352;28;20465;-66
2023/10/24 08:00:13;;;;;;;7.05;3.45;;;14.20;79.50;;;;;;5070665;28;20040;-66
2023/10/24 08:02:39;;;;;;;5.95;2.92;;;14.20;78.80;;;;;;5089428;28;20167;-66
2023/10/24 08:05:05;;;;;;;6.82;3.42;;;14.20;78.70;;;;;;5077667;28;20398;-66
2023/10/24 08:07:30;;;;;;;7.20;3.50;;;14.20;78.60;;;;;;5075889;28;20093;-65
2023/10/24 08:09:56;;;;;;;7.57;3.72;;;14.20;79.20;;;;;;5074124;28;20441;-65
2023/10/24 08:12:22;;;;;;;8.00;4.38;;;14.20;78.50;;;;;;5060415;28;20039;-66
2023/10/24 08:14:48;;;;;;;7.50;4.00;;;14.30;78.60;;;;;;5078069;28;20024;-66
2023/10/24 08:17:13;;;;;;;7.15;3.60;;;14.20;78.50;;;;;;5076276;28;20093;-65
2023/10/24 08:19:39;;;;;;;6.97;3.67;;;14.20;78.50;;;;;;5081383;28;20081;-66
2023/10/24 08:22:05;;;;;;;7.97;4.00;;;14.20;78.70;;;;;;5080581;28;21161;-65
2023/10/24 08:24:30;;;;;;;6.88;3.70;;;14.20;78.60;;;;;;5075397;28;20424;-65
2023/10/24 08:26:56;;;;;;;7.22;3.88;;;14.20;78.60;;;;;;5075116;28;20452;-65
2023/10/24 08:29:22;;;;;;;7.22;3.85;;;14.30;78.60;;;;;;5076548;28;20051;-66
2023/10/24 08:31:48;;;;;;;6.90;3.70;;;14.30;78.60;;;;;;5058950;28;20021;-66
2023/10/24 08:34:14;;;;;;;7.40;3.75;;;14.30;78.50;;;;;;5076745;28;20437;-65
2023/10/24 08:36:39;;;;;;;7.40;3.88;;;14.40;78.40;;;;;;5082935;28;20039;-66
2023/10/24 08:39:06;;;;;;;7.78;4.38;;;14.40;78.30;;;;;;5067841;28;20048;-66
2023/10/24 08:41:33;;;;;;;7.97;4.07;;;14.50;78.40;;;;;;5076943;28;20501;-66
2023/10/24 08:44:00;;;;;;;7.97;4.28;;;14.50;78.20;;;;;;5075613;28;20516;-66
2023/10/24 08:46:25;;;;;;;7.63;4.00;;;14.60;78.00;;;;;;5086098;28;20070;-66
2023/10/24 08:48:52;;;;;;;8.10;4.32;;;14.70;77.90;;;;;;5077005;28;20033;-66
2023/10/24 08:51:18;;;;;;;7.13;3.72;;;14.80;77.90;;;;;;5078910;28;20039;-66
2023/10/24 08:53:44;;;;;;;7.70;4.18;;;14.80;77.70;;;;;;5076497;28;20029;-66
2023/10/24 08:56:10;;;;;;;8.45;4.22;;;14.90;77.60;;;;;;5073155;28;20058;-67
2023/10/24 08:58:38;;;;;;;7.40;4.18;;;15.00;77.50;;;;;;5059520;28;20100;-66
2023/10/24 09:01:20;;;;;;;10.07;4.57;;;15.00;77.20;;;;;;5043809;28;20045;-66
2023/10/24 09:03:46;;;;;;;9.52;4.57;;;15.10;77.10;;;;;;5058477;28;20369;-67
2023/10/24 09:06:12;;;;;;;7.82;4.25;;;15.10;77.00;;;;;;5078451;28;20021;-66
2023/10/24 09:08:38;;;;;;;10.30;5.30;;;15.20;77.10;;;;;;5093211;28;20039;-66
2023/10/24 09:11:04;;;;;;;8.98;4.78;;;15.20;77.00;;;;;;5080439;28;20020;-66
2023/10/24 09:13:33;;;;;;;9.23;5.93;;;15.20;76.80;;;;;;5071756;28;20396;-66
2023/10/24 09:16:07;;;;;;;12.80;5.38;;;15.30;76.60;;;;;;5082007;28;20044;-66
2023/10/24 09:18:40;;;;;;;7.80;4.47;;;15.30;76.40;;;;;;5073703;28;20029;-66
2023/10/24 09:21:08;;;;;;;8.35;4.65;;;15.30;76.50;;;;;;5076725;28;20032;-66
2023/10/24 09:23:35;;;;;;;8.45;5.13;;;15.20;76.60;;;;;;5079634;28;20051;-67
2023/10/24 09:26:06;;;;;;;8.13;5.05;;;15.20;76.60;;;;;;5085726;28;20379;-66
2023/10/24 09:28:35;;;;;;;8.87;5.30;;;15.30;76.70;;;;;;5084921;28;20038;-66
2023/10/24 09:31:01;;;;;;;10.60;5.70;;;15.30;76.60;;;;;;5077500;28;20051;-66
2023/10/24 09:33:27;;;;;;;8.30;4.80;;;15.40;76.60;;;;;;5080253;28;20464;-66
2023/10/24 09:35:54;;;;;;;8.57;5.00;;;15.30;76.40;;;;;;5060537;28;20357;-66
2023/10/24 09:38:23;;;;;;;9.70;5.57;;;15.40;76.50;;;;;;5075243;28;20039;-66
2023/10/24 09:40:49;;;;;;;9.50;5.15;;;15.40;76.50;;;;;;5080368;28;20020;-66
2023/10/24 09:43:23;;;;;;;8.05;5.03;;;15.40;76.50;;;;;;5071386;28;20039;-66
2023/10/24 09:45:53;;;;;;;9.10;5.47;;;15.50;76.40;;;;;;5080620;28;20102;-66
2023/10/24 09:48:19;;;;;;;8.23;4.90;;;15.70;76.20;;;;;;5082506;28;20035;-67
2023/10/24 09:50:46;;;;;;;10.68;5.40;;;15.90;76.50;;;;;;5088184;28;20127;-67
2023/10/24 09:53:13;;;;;;;12.13;4.93;;;16.00;75.50;;;;;;5082535;28;20081;-67
2023/10/24 09:55:48;;;;;;;8.68;5.47;;;16.20;75.30;;;;;;5073651;28;20410;-67
2023/10/24 09:58:17;;;;;;;10.32;4.97;;;16.30;75.10;;;;;;5090265;28;20888;-67
2023/10/24 10:00:43;;;;;;;8.13;5.05;;;16.50;74.70;;;;;;5073604;28;20337;-67
2023/10/24 10:03:10;;;;;;;8.40;4.90;;;16.70;74.40;;;;;;5090637;28;20437;-68
2023/10/24 10:05:38;;;;;;;7.57;4.28;;;16.90;74.00;;;;;;5092026;28;20407;-67
2023/10/24 10:08:07;;;;;;;7.80;3.95;;;17.00;73.70;;;;;;5090898;28;20016;-67
2023/10/24 10:10:37;;;;;;;7.85;4.45;;;17.00;73.30;;;;;;5087697;28;20031;-67
2023/10/24 10:13:07;;;;;;;9.32;4.05;;;17.00;73.10;;;;;;5082549;28;20020;-67
2023/10/24 10:15:47;;;;;;;8.20;4.33;;;16.90;73.00;;;;;;5089526;28;20050;-68
2023/10/24 10:18:53;;;;;;;12.63;4.60;;;16.80;73.00;;;;;;5091766;28;20289;-67
2023/10/24 10:21:52;;;;;;;7.10;4.32;;;16.70;73.30;;;;;;5020789;28;20052;-67
2023/10/24 10:24:54;;;;;;;7.15;3.90;;;16.60;73.50;;;;;;5090829;28;20052;-67
2023/10/24 10:27:47;;;;;;;8.15;3.92;;;16.50;74.40;;;;;;5091224;28;20035;-67
2023/10/24 10:30:39;;;;;;;7.32;3.88;;;16.30;73.70;;;;;;5091273;28;20035;-67
2023/10/24 10:33:18;;;;;;;8.30;3.70;;;16.30;73.80;;;;;;5093012;28;20040;-68
2023/10/24 10:36:02;;;;;;;7.35;3.83;;;16.20;73.80;;;;;;5093675;28;20448;-67
2023/10/24 10:38:43;;;;;;;8.00;4.20;;;16.10;73.80;;;;;;5069883;28;20024;-66
2023/10/24 10:41:23;;;;;;;7.00;3.70;;;16.10;73.90;;;;;;5087459;28;20336;-67
2023/10/24 10:43:58;;;;;;;7.25;3.88;;;16.10;73.80;;;;;;5087960;28;20077;-66
2023/10/24 10:46:29;;;;;;;8.95;3.42;;;16.10;73.90;;;;;;5087682;28;20113;-66
2023/10/24 10:49:02;;;;;;;8.18;3.78;;;16.10;73.80;;;;;;5088150;28;20055;-67
2023/10/24 10:51:33;;;;;;;6.82;3.60;;;16.20;73.80;;;;;;5088778;28;20020;-67
2023/10/24 10:54:30;;;;;;;6.65;3.60;;;16.20;73.70;;;;;;5087317;28;20071;-67
2023/10/24 10:57:01;;;;;;;7.03;3.97;;;16.20;73.60;;;;;;5087061;28;20088;-66
2023/10/24 10:59:53;;;;;;;7.30;3.67;;;16.10;73.60;;;;;;5087841;28;20058;-66
2023/10/24 11:02:24;;;;;;;;;;;16.10;73.50;;;;;;5058515;28;20418;-66
2023/10/24 11:04:50;;;;;;;9.73;3.50;;;16.10;73.80;;;;;;5090410;28;19912;-66
2023/10/24 11:07:16;;;;;;;7.45;3.78;;;16.00;73.80;;;;;;5092426;28;20040;-66
2023/10/24 11:09:42;;;;;;;6.30;3.55;;;16.00;73.80;;;;;;5092503;28;20031;-67
2023/10/24 11:12:30;;;;;;;8.27;3.67;;;16.00;73.80;;;;;;5089360;28;20081;-66
2023/10/24 11:15:12;;;;;;;7.75;3.65;;;16.00;73.70;;;;;;5087766;28;20028;-67
2023/10/24 11:17:37;;;;;;;;;;;16.10;73.80;;;;;;5090981;28;20039;-65
2023/10/24 11:20:05;;;;;;;9.02;3.92;;;16.00;74.60;;;;;;5096045;28;20245;-66
2023/10/24 11:22:32;;;;;;;7.60;4.10;;;16.00;74.00;;;;;;5087704;28;21711;-66
2023/10/24 11:25:09;;;;;;;8.98;4.70;;;16.00;73.90;;;;;;5090649;28;21923;-66
2023/10/24 11:27:34;;;;;;;8.57;4.68;;;15.90;73.80;;;;;;5090169;28;20034;-66
2023/10/24 11:30:00;;;;;;;8.45;4.30;;;15.80;73.80;;;;;;5091761;28;20111;-67
2023/10/24 11:32:27;;;;;;;7.93;4.50;;;15.80;74.00;;;;;;5078764;28;20028;-66
2023/10/24 11:34:54;;;;;;;7.55;4.45;;;15.80;74.10;;;;;;5080118;28;20111;-66
2023/10/24 11:37:20;;;;;;;8.20;4.13;;;15.80;74.10;;;;;;5077412;28;20086;-67
2023/10/24 11:39:46;;;;;;;7.53;3.90;;;15.80;74.20;;;;;;5076667;28;20063;-66
2023/10/24 11:42:12;;;;;;;8.82;4.10;;;15.80;74.20;;;;;;5077366;28;20056;-66
2023/10/24 11:44:40;;;;;;;7.53;4.15;;;15.80;74.30;;;;;;5080470;28;20065;-66
2023/10/24 11:47:07;;;;;;;9.35;4.45;;;15.70;74.30;;;;;;5083539;28;20043;-66
2023/10/24 11:49:36;;;;;;;8.52;4.40;;;15.70;74.30;;;;;;5085469;28;20463;-67
2023/10/24 11:52:04;;;;;;;8.50;3.92;;;15.70;74.30;;;;;;5093602;28;20338;-67
2023/10/24 11:54:30;;;;;;;7.60;3.90;;;15.60;74.40;;;;;;5074114;28;20020;-67
2023/10/24 11:56:56;;;;;;;6.80;3.58;;;15.60;74.60;;;;;;5074782;28;20097;-67
2023/10/24 11:59:22;;;;;;;8.52;3.72;;;15.60;74.60;;;;;;5080053;28;20040;-67
2023/10/24 12:01:49;;;;;;;7.60;4.07;;;15.50;74.70;;;;;;5083952;28;20021;-67
2023/10/24 12:04:15;;;;;;;7.43;3.88;;;15.50;74.90;;;;;;5086839;28;20064;-67
2023/10/24 12:06:41;;;;;;;7.80;3.92;;;15.50;75.00;;;;;;5083811;28;20032;-67
2023/10/24 12:09:07;;;;;;;8.05;3.83;;;15.40;75.00;;;;;;5084683;28;20160;-67
2023/10/24 12:11:34;;;;;;;6.60;3.33;;;15.40;75.20;;;;;;5092978;28;20035;-67
2023/10/24 12:14:00;;;;;;;6.90;3.83;;;15.40;75.30;;;;;;5082729;28;20039;-67
2023/10/24 12:16:34;;;;;;;7.63;3.95;;;15.40;75.50;;;;;;5066543;28;20440;-68
2023/10/24 12:19:01;;;;;;;7.15;3.78;;;15.40;75.70;;;;;;5089268;28;20484;-67
2023/10/24 12:21:26;;;;;;;6.53;3.45;;;15.40;75.80;;;;;;5085951;28;20028;-67
2023/10/24 12:23:52;;;;;;;6.03;3.25;;;15.40;75.90;;;;;;5085255;28;20447;-67
2023/10/24 12:26:18;;;;;;;6.22;3.15;;;15.40;76.00;;;;;;5084594;28;20028;-67
2023/10/24 12:28:44;;;;;;;6.53;3.47;;;15.40;76.20;;;;;;5086390;28;20035;-67
2023/10/24 12:31:10;;;;;;;8.95;3.80;;;15.40;76.30;;;;;;5085932;28;20036;-67
2023/10/24 12:33:37;;;;;;;6.13;2.97;;;15.40;76.40;;;;;;5086216;28;20028;-67
2023/10/24 12:36:04;;;;;;;7.07;2.90;;;15.50;76.50;;;;;;5084305;28;20040;-67
2023/10/24 12:38:31;;;;;;;5.80;2.88;;;15.60;76.60;;;;;;5076429;28;20368;-67
2023/10/24 12:40:56;;;;;;;5.22;2.53;;;15.50;76.50;;;;;;5093405;28;20028;-67
2023/10/24 12:43:22;;;;;;;5.38;2.40;;;15.60;76.60;;;;;;5083559;28;20016;-67
2023/10/24 12:45:50;;;;;;;5.43;2.50;;;15.50;76.60;;;;;;5089236;28;20031;-68
2023/10/24 12:48:16;;;;;;;5.80;2.72;;;15.50;76.80;;;;;;5089474;28;20246;-67